Flight Track Log - Related Links

Times and Time Zones

All times are in EDT time to prevent confusion due to time zone crossing. See the FLG3735 flight status page for this flight to view local times or setup timezone preferences in your user account.

Time Position Orientation Groundspeed Altitude Reporting Facility
EDT Latitude Longitude Course Direction KTS MPH feet Rate Location/Type
Thu 10:31:33 PM 42.2017 -83.3583 82° East 160 184 1,100  Level Cleveland Center
Thu 10:32:34 PM 42.1558 -83.3561 178° South 204 235 2,700 1,734 Climbing Cleveland Center
Thu 10:33:41 PM 42.1025 -83.3147 150° Southeast 257 296 4,800 2,016 Climbing Cleveland Center
Thu 10:34:00 PM 42.2868 -82.8994 75° East  Level FlightAware Approximate
Thu 10:34:36 PM 42.0817 -83.2269 108° East 284 327 6,800  Level Cleveland Center
Thu 10:35:00 PM 42.3167 -82.7493 82° East  Level FlightAware Approximate
Thu 10:35:58 PM 42.1242 -83.0972 66° East 296 341 9,700  Level Cleveland Center
Thu 10:36:00 PM 42.3321 -82.5952 82° East  Level FlightAware Approximate
Thu 10:36:58 PM 42.1661 -82.9953 61° Northeast 296 341 11,400  Level Cleveland Center
Thu 10:37:58 PM 42.2081 -82.8819 63° Northeast 306 352 12,700 1,250 Climbing Cleveland Center
Thu 10:38:58 PM 42.2519 -82.7628 64° Northeast 332 382 13,900 1,100 Climbing Cleveland Center
Thu 10:39:58 PM 42.3000 -82.6353 63° Northeast 355 409 14,900 1,000 Climbing Cleveland Center
Thu 10:40:58 PM 42.3506 -82.4992 63° Northeast 377 434 15,900 1,050 Climbing Cleveland Center
Thu 10:41:58 PM 42.3611 -82.3506 84° East 389 448 17,000 1,050 Climbing Cleveland Center
Thu 10:42:58 PM 42.3572 -82.1989 92° East 397 457 18,000 850 Climbing Cleveland Center
Thu 10:43:58 PM 42.3508 -82.0414 93° East 409 471 18,700 850 Climbing Cleveland Center
Thu 10:44:58 PM 42.3447 -81.8669 93° East 414 476 19,700 1,000 Climbing Cleveland Center
Thu 10:45:58 PM 42.3358 -81.7122 94° East 419 482 20,700 1,000 Climbing Cleveland Center
Thu 10:46:58 PM 42.3289 -81.5519 93° East 419 482 21,700 900 Climbing Cleveland Center
Thu 10:47:58 PM 42.3219 -81.3947 93° East 426 490 22,500 750 Climbing Cleveland Center
Thu 10:48:58 PM 42.3144 -81.2317 94° East 426 490 23,200 600 Climbing Cleveland Center
Thu 10:49:58 PM 42.3069 -81.0689 94° East 421 484 23,700 500 Climbing Cleveland Center
Thu 10:50:58 PM 42.2950 -80.9031 96° East 436 502 24,200 500 Climbing Cleveland Center
Thu 10:51:58 PM 42.3122 -80.7347 82° East 442 509 24,700 500 Climbing Cleveland Center
Thu 10:52:58 PM 42.3247 -80.5858 83° East 442 509 25,200 500 Climbing Cleveland Center
Thu 10:53:58 PM 42.3414 -80.4231 82° East 443 510 25,700 500 Climbing Cleveland Center
Thu 10:54:58 PM 42.3533 -80.2517 85° East 448 516 26,200 500 Climbing Cleveland Center
Thu 10:55:58 PM 42.3717 -80.0886 81° East 443 510 26,700 400 Climbing Cleveland Center
Thu 10:56:58 PM 42.3833 -79.9197 85° East 448 516 27,000 150 Climbing Cleveland Center
Thu 10:57:58 PM 42.3989 -79.7539 83° East 448 516 27,000  Level Cleveland Center
Thu 10:58:58 PM 42.4122 -79.5819 84° East 448 516 27,000  Level Cleveland Center
Thu 10:59:58 PM 42.4250 -79.4103 84° East 448 516 27,000  Level Cleveland Center
Thu 11:00:58 PM 42.4400 -79.2383 83° East 453 521 27,000  Level Cleveland Center
Thu 11:01:58 PM 42.4583 -79.0439 83° East 465 535 27,000  Level Cleveland Center
Thu 11:02:58 PM 42.4725 -78.8661 84° East 465 535 27,000  Level Cleveland Center
Thu 11:03:58 PM 42.4864 -78.6911 84° East 465 535 27,000  Level Cleveland Center
Thu 11:04:58 PM 42.4978 -78.5106 85° East 465 535 27,000  Level Cleveland Center
Thu 11:05:58 PM 42.5114 -78.3356 84° East 465 535 27,000  Level Cleveland Center
Thu 11:06:58 PM 42.5244 -78.1575 84° East 465 535 27,000  Level Cleveland Center
Thu 11:07:58 PM 42.5350 -77.9794 85° East 465 535 27,000  Level Cleveland Center
Thu 11:08:58 PM 42.5464 -77.8353 84° East 465 535 27,000  Level Cleveland Center
Thu 11:09:58 PM 42.5603 -77.6372 84° East 470 541 27,000  Level Cleveland Center
Thu 11:10:58 PM 42.5742 -77.4589 84° East 470 541 27,000  Level Cleveland Center
Thu 11:12:42 PM 42.5936 -77.1228 85° East 487 560 27,000  Level Boston Center
Thu 11:13:42 PM 42.6031 -76.9400 86° East 487 560 27,000  Level Boston Center
Thu 11:14:42 PM 42.6144 -76.7572 85° East 487 560 27,000  Level Boston Center
Thu 11:15:42 PM 42.6253 -76.5744 85° East 482 555 27,000  Level Boston Center
Thu 11:16:42 PM 42.6358 -76.3944 85° East 482 555 27,000  Level Boston Center
Thu 11:17:42 PM 42.6461 -76.2144 86° East 477 549 27,000  Level Boston Center
Thu 11:18:42 PM 42.6542 -76.0286 87° East 482 555 27,000  Level Boston Center
Thu 11:19:42 PM 42.6642 -75.8456 86° East 482 555 27,000 -50 Level Boston Center
Thu 11:20:42 PM 42.6736 -75.6625 86° East 482 555 26,900 -1,200 Descending Boston Center
Thu 11:21:42 PM 42.6828 -75.4792 86° East 482 555 24,600 -2,350 Descending Boston Center
Thu 11:22:42 PM 42.6892 -75.3186 87° East 482 555 22,200 -2,182 Descending Boston Center
Thu 11:23:54 PM 42.6975 -75.1467 86° East 465 535 19,800 -2,273 Descending Boston Center
Thu 11:24:54 PM 42.7064 -74.9436 87° East 452 520 17,200 -2,550 Descending Boston Center
Thu 11:25:54 PM 42.7142 -74.7686 86° East 429 494 14,700 -2,200 Descending Boston Center
Thu 11:26:54 PM 42.7211 -74.6303 86° East 415 478 12,800 -1,846 Descending Boston Center
Thu 11:28:04 PM 42.7203 -74.4550 90° East 377 434 10,700 -1,511 Descending Boston Center
Thu 11:29:05 PM 42.7058 -74.3247 99° East 306 352 9,500 -1,488 Descending Boston Center
Thu 11:30:05 PM 42.6972 -74.2114 96° East 294 338 7,700 -2,033 Descending Boston Center
Thu 11:31:06 PM 42.6864 -74.1008 98° East 293 337 5,400 -1,770 Descending Boston Center
Thu 11:32:07 PM 42.6775 -73.9961 97° East 283 326 4,100 -1,279 Descending Boston Center

Login

Don't have an account? Register now (free) for customized features, flight alerts, and more!